createdAt,value
2018-02-03T00:01:16.895Z,5.10
2018-02-03T00:03:44.444Z,6.67
2018-02-03T00:06:12.020Z,5.23
2018-02-03T00:08:39.575Z,6.77
2018-02-03T00:11:07.095Z,8.27
2018-02-03T00:13:34.647Z,4.53
2018-02-03T00:16:02.182Z,6.40
2018-02-03T00:18:29.742Z,6.93
2018-02-03T00:20:57.271Z,6.07
2018-02-03T00:23:24.869Z,4.60
2018-02-03T00:25:52.464Z,5.10
2018-02-03T00:28:20.742Z,5.10
2018-02-03T00:30:48.344Z,5.47
2018-02-03T00:33:15.897Z,5.63
2018-02-03T00:35:43.411Z,6.83
2018-02-03T00:38:11.688Z,6.17
2018-02-03T00:40:39.248Z,5.97
2018-02-03T00:43:07.523Z,4.57
2018-02-03T00:45:35.027Z,6.27
2018-02-03T00:48:02.574Z,4.63
2018-02-03T00:50:30.100Z,4.40
2018-02-03T00:52:57.658Z,4.93
2018-02-03T00:55:25.200Z,5.50
2018-02-03T00:57:52.711Z,6.07
2018-02-03T01:00:20.269Z,4.17
2018-02-03T01:02:47.831Z,5.27
2018-02-03T01:05:15.330Z,4.27
2018-02-03T01:07:42.848Z,4.13
2018-02-03T01:10:10.406Z,4.53
2018-02-03T01:12:37.915Z,4.63
2018-02-03T01:15:05.436Z,4.70
2018-02-03T01:17:32.985Z,4.50
2018-02-03T01:20:00.493Z,5.30
2018-02-03T01:22:28.047Z,6.43
2018-02-03T01:24:55.562Z,4.70
2018-02-03T01:27:23.101Z,4.03
2018-02-03T01:29:50.628Z,4.50
2018-02-03T01:32:18.208Z,4.97
2018-02-03T01:34:45.756Z,4.47
2018-02-03T01:37:14.094Z,4.50
2018-02-03T01:39:41.650Z,6.43
2018-02-03T01:42:09.211Z,5.43
2018-02-03T01:44:36.731Z,5.77
2018-02-03T01:47:04.264Z,4.63
2018-02-03T01:49:31.784Z,6.50
2018-02-03T01:51:59.335Z,6.53
2018-02-03T01:54:26.996Z,7.10
2018-02-03T01:56:54.560Z,6.47
2018-02-03T01:59:22.059Z,4.20
2018-02-03T02:01:49.641Z,3.80
2018-02-03T02:04:17.160Z,4.97
2018-02-03T02:06:44.659Z,4.23
2018-02-03T02:09:12.199Z,4.60
2018-02-03T02:11:39.714Z,6.03
2018-02-03T02:14:07.254Z,5.47
2018-02-03T02:16:34.771Z,4.23
2018-02-03T02:19:02.344Z,4.53
2018-02-03T02:21:30.664Z,4.20
2018-02-03T02:23:58.480Z,8.43
2018-02-03T02:26:26.008Z,4.23
2018-02-03T02:28:53.555Z,4.63
2018-02-03T02:31:21.069Z,5.67
2018-02-03T02:33:48.586Z,3.80
2018-02-03T02:36:16.134Z,4.87
2018-02-03T02:38:43.643Z,3.93
2018-02-03T02:41:11.972Z,5.23
2018-02-03T02:43:39.509Z,4.40
2018-02-03T02:46:07.055Z,3.97
2018-02-03T02:48:34.573Z,5.87
2018-02-03T02:51:02.105Z,4.90
2018-02-03T02:53:29.664Z,4.47
2018-02-03T02:58:47.405Z,9.50
2018-02-03T03:01:15.018Z,8.30
2018-02-03T03:03:42.526Z,8.13
2018-02-03T03:06:10.084Z,7.00
2018-02-03T03:08:37.693Z,8.87
2018-02-03T03:11:05.219Z,4.97
2018-02-03T03:13:32.784Z,5.00
2018-02-03T03:16:00.290Z,5.23
2018-02-03T03:18:27.860Z,6.83
2018-02-03T03:20:55.411Z,4.57
2018-02-03T03:23:22.933Z,9.67
2018-02-03T03:25:50.477Z,4.40
2018-02-03T03:28:18.032Z,4.43
2018-02-03T03:30:45.549Z,6.50
2018-02-03T03:33:13.104Z,5.90
2018-02-03T03:35:40.631Z,4.13
2018-02-03T03:38:08.175Z,4.43
2018-02-03T03:40:35.736Z,4.97
2018-02-03T03:43:03.295Z,3.90
2018-02-03T03:45:30.815Z,4.63
2018-02-03T03:47:58.365Z,4.83
2018-02-03T03:50:25.925Z,5.07
2018-02-03T03:52:53.455Z,5.33
2018-02-03T03:55:21.244Z,5.23
2018-02-03T03:57:49.576Z,5.43
2018-02-03T04:00:17.089Z,7.37
2018-02-03T04:02:45.392Z,6.40
2018-02-03T04:05:12.952Z,4.87
2018-02-03T04:07:40.478Z,4.97
2018-02-03T04:10:08.072Z,3.60
2018-02-03T04:12:35.592Z,5.63
2018-02-03T04:15:03.914Z,5.27
2018-02-03T04:17:31.460Z,6.03
2018-02-03T04:19:58.963Z,4.87
2018-02-03T04:22:26.509Z,5.73
2018-02-03T04:24:54.055Z,5.70
2018-02-03T04:27:21.600Z,6.13
2018-02-03T04:29:49.131Z,4.50
2018-02-03T04:32:16.698Z,8.17
2018-02-03T04:34:44.291Z,5.13
2018-02-03T04:37:11.852Z,4.00
2018-02-03T04:39:39.366Z,4.63
2018-02-03T04:42:06.904Z,6.73
2018-02-03T04:44:34.570Z,6.10
2018-02-03T04:47:02.079Z,6.57
2018-02-03T04:49:29.587Z,4.20
2018-02-03T04:51:57.135Z,4.67
2018-02-03T04:54:24.686Z,5.73
2018-02-03T04:56:52.209Z,3.80
2018-02-03T04:59:19.779Z,4.40
2018-02-03T05:01:47.356Z,4.90
2018-02-03T05:04:14.872Z,4.03
2018-02-03T05:06:42.439Z,7.20
2018-02-03T05:09:09.997Z,4.00
2018-02-03T05:11:37.550Z,5.77
2018-02-03T05:14:05.144Z,4.33
2018-02-03T05:16:32.672Z,4.07
2018-02-03T05:19:00.231Z,6.10
2018-02-03T05:21:27.763Z,3.70
2018-02-03T05:23:55.350Z,4.47
2018-02-03T05:26:22.914Z,7.87
2018-02-03T05:28:50.435Z,5.37
2018-02-03T05:31:18.004Z,3.83
2018-02-03T05:33:45.524Z,10.00
2018-02-03T05:36:13.056Z,3.73
2018-02-03T05:38:41.484Z,6.87
2018-02-03T05:41:09.010Z,7.63
2018-02-03T05:43:45.804Z,4.77
2018-02-03T05:46:13.364Z,5.50
2018-02-03T05:48:40.888Z,5.43
2018-02-03T05:51:08.448Z,4.07
2018-02-03T05:53:36.010Z,4.87
2018-02-03T05:56:03.570Z,5.17
2018-02-03T05:58:31.087Z,5.80
2018-02-03T06:00:58.660Z,6.97
2018-02-03T06:03:26.217Z,5.23
2018-02-03T06:05:54.558Z,4.40
2018-02-03T06:08:22.080Z,5.67
2018-02-03T06:10:49.616Z,5.43
2018-02-03T06:13:17.194Z,4.67
2018-02-03T06:15:44.771Z,5.17
2018-02-03T06:18:12.284Z,5.10
2018-02-03T06:20:39.797Z,7.33
2018-02-03T06:23:07.350Z,4.80
2018-02-03T06:25:34.866Z,5.73
2018-02-03T06:28:02.434Z,5.73
2018-02-03T06:30:29.984Z,4.97
2018-02-03T06:32:57.509Z,7.47
2018-02-03T06:35:25.073Z,5.50
2018-02-03T06:37:52.599Z,5.30
2018-02-03T06:40:20.136Z,6.27
2018-02-03T06:42:47.672Z,9.37
2018-02-03T06:45:15.264Z,7.30
2018-02-03T06:47:42.812Z,6.27
2018-02-03T06:50:10.356Z,6.23
2018-02-03T06:52:37.913Z,5.17
2018-02-03T06:55:05.577Z,6.97
2018-02-03T06:57:33.080Z,4.73
2018-02-03T07:00:00.629Z,6.80
2018-02-03T07:02:28.205Z,7.43
2018-02-03T07:04:55.735Z,4.77
2018-02-03T07:07:24.048Z,6.30
2018-02-03T07:09:51.610Z,8.37
2018-02-03T07:12:19.160Z,4.97
2018-02-03T07:14:46.717Z,9.13
2018-02-03T07:17:14.230Z,7.50
2018-02-03T07:19:41.791Z,13.17
2018-02-03T07:22:09.304Z,8.40
2018-02-03T07:24:36.862Z,6.23
2018-02-03T07:27:04.392Z,10.20
2018-02-03T07:29:32.708Z,6.20
2018-02-03T07:32:00.228Z,7.23
2018-02-03T07:34:28.508Z,6.03
2018-02-03T07:36:56.041Z,6.50
2018-02-03T07:39:23.555Z,6.23
2018-02-03T07:41:51.174Z,7.27
2018-02-03T07:44:18.722Z,6.37
2018-02-03T07:46:46.305Z,8.73
2018-02-03T07:49:14.034Z,6.60
2018-02-03T07:51:41.606Z,6.87
2018-02-03T07:54:09.120Z,6.53
2018-02-03T07:56:36.701Z,9.60
2018-02-03T07:59:04.232Z,7.97
2018-02-03T08:01:31.799Z,5.93
2018-02-03T08:03:59.575Z,8.87
2018-02-03T08:06:27.133Z,10.73
2018-02-03T08:08:54.692Z,6.93
2018-02-03T08:11:22.217Z,13.20
2018-02-03T08:13:49.741Z,7.10
2018-02-03T08:16:17.286Z,6.27
2018-02-03T08:18:44.787Z,6.87
2018-02-03T08:21:13.091Z,6.00
2018-02-03T08:23:40.648Z,6.20
2018-02-03T08:26:08.211Z,6.57
2018-02-03T08:28:35.746Z,9.67
2018-02-03T08:31:03.297Z,8.07
2018-02-03T08:33:30.846Z,6.53
2018-02-03T08:35:58.407Z,7.33
2018-02-03T08:38:26.730Z,6.57
2018-02-03T08:40:54.288Z,7.50
2018-02-03T08:43:21.816Z,8.80
2018-02-03T08:45:49.441Z,7.40
2018-02-03T08:48:16.980Z,6.70
2018-02-03T08:50:44.555Z,5.30
2018-02-03T08:53:12.868Z,8.80
2018-02-03T08:55:41.201Z,5.63
2018-02-03T08:58:08.752Z,10.10
2018-02-03T09:00:36.283Z,9.03
2018-02-03T09:03:03.834Z,9.60
2018-02-03T09:05:32.307Z,7.30
2018-02-03T09:07:59.858Z,7.00
2018-02-03T09:10:27.562Z,9.47
2018-02-03T09:12:55.139Z,5.73
2018-02-03T09:15:22.692Z,6.83
2018-02-03T09:17:50.315Z,6.20
2018-02-03T09:20:17.871Z,5.83
2018-02-03T09:22:46.152Z,5.20
2018-02-03T09:25:13.775Z,6.07
2018-02-03T09:27:41.304Z,11.60
2018-02-03T09:30:08.832Z,9.07
2018-02-03T09:32:36.440Z,5.90
2018-02-03T09:35:03.993Z,6.80
2018-02-03T09:37:31.515Z,6.23
2018-02-03T09:39:59.080Z,7.27
2018-02-03T09:42:26.601Z,8.30
2018-02-03T09:44:54.169Z,5.73
2018-02-03T09:47:21.712Z,5.97
2018-02-03T09:49:49.279Z,6.10
2018-02-03T09:52:16.800Z,7.10
2018-02-03T09:54:44.367Z,8.17
2018-02-03T09:57:11.890Z,9.00
2018-02-03T09:59:40.204Z,8.37
2018-02-03T10:02:07.767Z,5.60
2018-02-03T10:04:35.339Z,6.03
2018-02-03T10:07:02.848Z,6.03
2018-02-03T10:09:30.376Z,5.87
2018-02-03T10:11:57.936Z,6.03
2018-02-03T10:14:25.513Z,6.07
2018-02-03T10:16:53.127Z,10.50
2018-02-03T10:19:20.653Z,6.60
2018-02-03T10:21:48.228Z,6.23
2018-02-03T10:24:15.758Z,8.57
2018-02-03T10:26:44.036Z,6.43
2018-02-03T10:29:11.576Z,7.43
2018-02-03T10:31:39.167Z,7.07
2018-02-03T10:34:06.688Z,6.07
2018-02-03T10:36:34.224Z,8.27
2018-02-03T10:39:01.783Z,5.67
2018-02-03T10:41:29.337Z,6.10
2018-02-03T10:43:56.891Z,5.07
2018-02-03T10:46:24.410Z,5.17
2018-02-03T10:48:52.727Z,5.63
2018-02-03T10:51:20.297Z,6.33
2018-02-03T10:53:47.910Z,6.57
2018-02-03T10:56:15.445Z,5.30
2018-02-03T10:58:43.001Z,6.33
2018-02-03T11:01:10.594Z,6.10
2018-02-03T11:03:38.132Z,12.47
2018-02-03T11:06:08.257Z,5.13
2018-02-03T11:08:35.774Z,6.67
2018-02-03T11:11:03.317Z,5.07
2018-02-03T11:13:30.877Z,5.03
2018-02-03T11:15:58.383Z,5.90
2018-02-03T11:18:25.933Z,6.00
2018-02-03T11:20:53.461Z,7.37
2018-02-03T11:23:21.048Z,13.40
2018-02-03T11:25:48.630Z,6.87
2018-02-03T11:28:16.173Z,6.93
2018-02-03T11:30:43.771Z,6.53
2018-02-03T11:33:11.316Z,6.07
2018-02-03T11:35:39.653Z,5.60
2018-02-03T11:38:07.193Z,5.70
2018-02-03T11:40:34.772Z,5.90
2018-02-03T11:43:02.312Z,6.13
2018-02-03T11:45:29.827Z,5.27
2018-02-03T11:47:58.186Z,5.33
2018-02-03T11:50:25.760Z,5.03
2018-02-03T11:52:53.520Z,6.90
2018-02-03T11:55:21.156Z,6.00
2018-02-03T11:57:48.689Z,5.77
2018-02-03T12:00:16.268Z,7.67
2018-02-03T12:02:43.827Z,5.67
2018-02-03T12:05:11.348Z,5.37
2018-02-03T12:07:39.224Z,5.50
2018-02-03T12:10:06.739Z,4.93
2018-02-03T12:12:34.428Z,5.73
2018-02-03T12:15:02.736Z,6.70
2018-02-03T12:17:30.252Z,5.17
2018-02-03T12:19:57.800Z,5.80
2018-02-03T12:22:25.312Z,5.33
2018-02-03T12:24:52.859Z,7.03
2018-02-03T12:27:20.363Z,5.40
2018-02-03T12:29:48.093Z,5.30
2018-02-03T12:32:15.620Z,5.90
2018-02-03T12:34:43.175Z,6.23
2018-02-03T12:37:10.724Z,5.43
2018-02-03T12:39:39.243Z,5.70
2018-02-03T12:42:06.829Z,4.77
2018-02-03T12:44:34.337Z,5.40
2018-02-03T12:47:02.699Z,5.63
2018-02-03T12:49:30.182Z,5.17
2018-02-03T12:51:58.507Z,6.03
2018-02-03T12:54:26.046Z,5.70
2018-02-03T12:56:53.579Z,6.67
2018-02-03T12:59:21.135Z,8.00
2018-02-03T13:01:48.699Z,4.53
2018-02-03T13:04:17.026Z,5.40
2018-02-03T13:06:44.532Z,5.80
2018-02-03T13:09:12.834Z,4.73
2018-02-03T13:11:40.386Z,4.67
2018-02-03T13:14:07.935Z,7.70
2018-02-03T13:16:35.484Z,10.40
2018-02-03T13:19:03.024Z,8.87
2018-02-03T13:21:31.329Z,5.73
2018-02-03T13:23:58.863Z,5.80
2018-02-03T13:26:27.206Z,5.70
2018-02-03T13:28:55.631Z,5.33
2018-02-03T13:31:23.918Z,4.63
2018-02-03T13:33:51.487Z,5.40
2018-02-03T13:36:19.890Z,6.77
2018-02-03T13:38:47.587Z,6.90
2018-02-03T13:41:15.145Z,7.70
2018-02-03T13:43:42.680Z,7.70
2018-02-03T13:46:10.203Z,5.57
2018-02-03T13:48:37.767Z,9.40
2018-02-03T13:51:05.310Z,8.37
2018-02-03T13:53:32.821Z,6.83
2018-02-03T13:56:00.372Z,8.40
2018-02-03T13:58:27.938Z,7.43
2018-02-03T14:00:55.554Z,8.10
2018-02-03T14:03:23.148Z,8.00
2018-02-03T14:05:50.734Z,20.40
2018-02-03T14:08:18.280Z,11.53
2018-02-03T14:10:45.794Z,7.67
2018-02-03T14:13:14.078Z,6.33
2018-02-03T14:15:41.637Z,5.70
2018-02-03T14:18:09.945Z,9.23
2018-02-03T14:20:37.448Z,6.30
2018-02-03T14:23:05.035Z,6.27
2018-02-03T14:25:32.538Z,6.53
2018-02-03T14:28:00.337Z,9.00
2018-02-03T14:30:27.854Z,7.50
2018-02-03T14:32:55.441Z,8.00
2018-02-03T14:35:22.979Z,7.50
2018-02-03T14:37:50.538Z,7.87
2018-02-03T14:40:18.148Z,7.93
2018-02-03T14:42:45.723Z,8.93
2018-02-03T14:45:13.606Z,6.33
2018-02-03T14:47:41.149Z,6.47
2018-02-03T14:50:08.691Z,5.40
2018-02-03T14:52:36.665Z,6.70
2018-02-03T14:55:05.037Z,5.90
2018-02-03T14:57:33.714Z,7.53
2018-02-03T15:00:02.096Z,9.53
2018-02-03T15:02:29.621Z,6.97
2018-02-03T15:04:57.164Z,7.80
2018-02-03T15:07:24.751Z,9.53
2018-02-03T15:09:52.295Z,7.13
2018-02-03T15:12:19.844Z,7.23
2018-02-03T15:14:47.465Z,9.77
2018-02-03T15:17:14.999Z,7.33
2018-02-03T15:19:42.602Z,8.90
2018-02-03T15:22:10.206Z,9.90
2018-02-03T15:24:37.764Z,6.20
2018-02-03T15:27:05.483Z,7.33
2018-02-03T15:29:33.029Z,7.07
2018-02-03T15:32:01.404Z,8.23
2018-02-03T15:34:29.703Z,9.73
2018-02-03T15:36:57.287Z,9.27
2018-02-03T15:39:24.799Z,7.40
2018-02-03T15:41:53.194Z,7.40
2018-02-03T15:44:20.735Z,6.33
2018-02-03T15:46:48.244Z,6.90
2018-02-03T15:49:15.882Z,6.30
2018-02-03T15:51:43.476Z,7.53
2018-02-03T15:54:11.041Z,7.53
2018-02-03T15:56:38.575Z,6.97
2018-02-03T15:59:06.114Z,8.03
2018-02-03T16:01:33.697Z,8.93
2018-02-03T16:04:01.239Z,9.73
2018-02-03T16:06:28.787Z,9.17
2018-02-03T16:08:56.347Z,8.17
2018-02-03T16:11:23.962Z,8.10
2018-02-03T16:13:51.457Z,9.17
2018-02-03T16:16:19.013Z,11.40
2018-02-03T16:18:47.332Z,8.80
2018-02-03T16:21:14.884Z,9.87
2018-02-03T16:23:42.475Z,10.80
2018-02-03T16:26:09.994Z,11.67
2018-02-03T16:28:37.572Z,9.80
2018-02-03T16:31:05.112Z,11.23
2018-02-03T16:33:32.686Z,11.20
2018-02-03T16:36:00.335Z,13.33
2018-02-03T16:38:27.846Z,8.97
2018-02-03T16:40:55.618Z,11.13
2018-02-03T16:43:23.230Z,11.13
2018-02-03T16:45:50.821Z,10.63
2018-02-03T16:48:18.378Z,12.50
2018-02-03T16:50:46.463Z,10.63
2018-02-03T16:53:14.002Z,10.87
2018-02-03T16:55:41.586Z,10.23
2018-02-03T16:58:10.143Z,10.90
2018-02-03T17:00:37.714Z,9.93
2018-02-03T17:03:05.256Z,14.50
2018-02-03T17:05:33.083Z,13.50
2018-02-03T17:08:01.811Z,17.63
2018-02-03T17:10:30.214Z,15.80
2018-02-03T17:12:58.057Z,14.70
2018-02-03T17:15:25.649Z,11.60
2018-02-03T17:17:53.296Z,8.20
2018-02-03T17:20:21.021Z,13.37
2018-02-03T17:22:48.571Z,15.20
2018-02-03T17:25:16.104Z,13.40
2018-02-03T17:27:43.658Z,11.30
2018-02-03T17:30:11.270Z,11.07
2018-02-03T17:32:38.855Z,11.67
2018-02-03T17:35:06.368Z,10.80
2018-02-03T17:37:39.510Z,10.73
2018-02-03T17:40:07.046Z,13.47
2018-02-03T17:42:34.648Z,9.57
2018-02-03T17:45:07.767Z,10.37
2018-02-03T17:47:35.404Z,9.60
2018-02-03T17:50:02.967Z,9.93
2018-02-03T17:52:31.295Z,9.70
2018-02-03T17:54:58.887Z,11.70
2018-02-03T17:57:32.028Z,14.50
2018-02-03T17:59:59.655Z,14.17
2018-02-03T18:02:27.213Z,14.80
2018-02-03T18:04:55.620Z,16.03
2018-02-03T18:07:23.168Z,21.37
2018-02-03T18:09:51.495Z,16.83
2018-02-03T18:12:19.016Z,13.40
2018-02-03T18:14:47.506Z,13.07
2018-02-03T18:17:15.116Z,11.53
2018-02-03T18:19:42.678Z,14.53
2018-02-03T18:22:10.243Z,10.67
2018-02-03T18:24:37.771Z,9.13
2018-02-03T18:27:05.302Z,8.97
2018-02-03T18:29:32.896Z,12.00
2018-02-03T18:32:00.792Z,14.67
2018-02-03T18:34:28.325Z,10.63
2018-02-03T18:36:55.865Z,12.23
2018-02-03T18:39:23.394Z,15.27
2018-02-03T18:41:50.935Z,14.83
2018-02-03T18:44:18.553Z,11.90
2018-02-03T18:46:46.088Z,12.37
2018-02-03T18:49:13.598Z,11.73
2018-02-03T18:51:41.137Z,9.33
2018-02-03T18:54:08.695Z,11.33
2018-02-03T18:56:36.246Z,14.40
2018-02-03T18:59:03.815Z,14.00
2018-02-03T19:01:31.380Z,15.20
2018-02-03T19:03:58.939Z,14.20
2018-02-03T19:06:26.535Z,15.40
2018-02-03T19:08:54.138Z,11.60
2018-02-03T19:11:21.653Z,10.07
2018-02-03T19:13:49.690Z,10.33
2018-02-03T19:16:17.230Z,15.07
2018-02-03T19:18:44.859Z,9.90
2018-02-03T19:21:12.826Z,12.27
2018-02-03T19:23:40.408Z,35.00
2018-02-03T19:26:07.999Z,12.13
2018-02-03T19:28:35.567Z,11.63
2018-02-03T19:31:03.086Z,11.33
2018-02-03T19:33:30.649Z,14.40
2018-02-03T19:35:58.301Z,9.23
2018-02-03T19:38:25.924Z,13.20
2018-02-03T19:40:53.467Z,11.43
2018-02-03T19:43:21.041Z,10.40
2018-02-03T19:45:49.386Z,12.63
2018-02-03T19:48:17.046Z,10.20
2018-02-03T19:50:44.652Z,11.50
2018-02-03T19:53:12.313Z,12.80
2018-02-03T19:55:39.845Z,16.70
2018-02-03T19:58:07.432Z,14.50
2018-02-03T20:00:34.963Z,13.17
2018-02-03T20:03:02.580Z,13.90
2018-02-03T20:05:30.969Z,12.73
2018-02-03T20:07:59.259Z,11.10
2018-02-03T20:10:27.080Z,10.77
2018-02-03T20:12:54.651Z,13.93
2018-02-03T20:15:23.008Z,14.03
2018-02-03T20:17:50.574Z,11.70
2018-02-03T20:20:18.119Z,11.43
2018-02-03T20:22:45.667Z,10.97
2018-02-03T20:25:13.221Z,12.03
2018-02-03T20:27:40.764Z,10.03
2018-02-03T20:30:08.303Z,10.57
2018-02-03T20:32:36.611Z,12.40
2018-02-03T20:35:04.231Z,9.70
2018-02-03T20:37:31.904Z,14.20
2018-02-03T20:39:59.433Z,10.30
2018-02-03T20:42:26.998Z,18.10
2018-02-03T20:44:54.554Z,10.77
2018-02-03T20:47:22.163Z,10.73
2018-02-03T20:49:49.904Z,9.50
2018-02-03T20:52:17.495Z,11.50
2018-02-03T20:54:45.075Z,12.27
2018-02-03T20:57:12.616Z,11.20
2018-02-03T20:59:40.321Z,9.03
2018-02-03T21:02:07.934Z,10.83
2018-02-03T21:04:35.493Z,11.50
2018-02-03T21:07:03.020Z,10.57
2018-02-03T21:09:30.642Z,13.40
2018-02-03T21:11:58.187Z,8.93
2018-02-03T21:14:25.764Z,11.23
2018-02-03T21:16:53.347Z,10.70
2018-02-03T21:19:20.938Z,11.03
2018-02-03T21:21:48.494Z,13.53
2018-02-03T21:24:16.425Z,13.23
2018-02-03T21:26:43.993Z,12.97
2018-02-03T21:29:11.642Z,11.30
2018-02-03T21:31:39.247Z,11.93
2018-02-03T21:34:06.828Z,12.67
2018-02-03T21:36:34.350Z,9.03
2018-02-03T21:39:02.026Z,10.07
2018-02-03T21:41:29.576Z,22.53
2018-02-03T21:43:57.231Z,12.63
2018-02-03T21:46:25.689Z,12.03
2018-02-03T21:48:54.008Z,13.23
2018-02-03T21:51:21.562Z,12.43
2018-02-03T21:53:49.099Z,10.03
2018-02-03T21:56:16.663Z,10.23
2018-02-03T21:58:44.991Z,10.10
2018-02-03T22:01:12.516Z,9.93
2018-02-03T22:03:40.136Z,9.47
2018-02-03T22:06:07.704Z,9.90
2018-02-03T22:08:35.224Z,11.50
2018-02-03T22:11:02.780Z,11.90
2018-02-03T22:13:30.356Z,11.73
2018-02-03T22:15:57.935Z,10.97
2018-02-03T22:18:25.471Z,12.03
2018-02-03T22:20:53.044Z,13.03
2018-02-03T22:23:20.671Z,11.17
2018-02-03T22:25:48.261Z,12.60
2018-02-03T22:28:15.814Z,10.80
2018-02-03T22:30:43.373Z,11.53
2018-02-03T22:33:10.933Z,9.90
2018-02-03T22:35:38.507Z,12.97
2018-02-03T22:38:11.039Z,12.30
2018-02-03T22:40:38.642Z,12.13
2018-02-03T22:43:06.194Z,12.73
2018-02-03T22:45:33.753Z,11.63
2018-02-03T22:48:01.359Z,14.20
2018-02-03T22:50:29.011Z,11.70
2018-02-03T22:52:56.522Z,11.60
2018-02-03T22:55:24.062Z,13.80
2018-02-03T22:57:51.640Z,20.37
2018-02-03T23:00:19.165Z,12.50
2018-02-03T23:02:53.245Z,10.70
2018-02-03T23:05:20.843Z,12.70
2018-02-03T23:07:49.139Z,11.33
2018-02-03T23:10:16.691Z,12.63
2018-02-03T23:12:44.294Z,12.97
2018-02-03T23:15:11.839Z,17.27
2018-02-03T23:17:39.367Z,12.80
2018-02-03T23:20:06.922Z,13.40
2018-02-03T23:22:34.520Z,12.43
2018-02-03T23:25:02.048Z,17.80
2018-02-03T23:27:29.621Z,15.00
2018-02-03T23:29:57.135Z,15.07
2018-02-03T23:32:24.686Z,10.20
2018-02-03T23:34:52.269Z,12.73
2018-02-03T23:37:20.607Z,11.77
2018-02-03T23:39:48.138Z,12.10
2018-02-03T23:42:15.736Z,13.37
2018-02-03T23:44:43.307Z,12.13
2018-02-03T23:47:10.842Z,14.00
2018-02-03T23:49:38.376Z,11.97
2018-02-03T23:52:05.949Z,11.13
2018-02-03T23:54:33.455Z,13.37
2018-02-03T23:57:01.080Z,11.43
2018-02-03T23:59:28.621Z,11.90
